Pittsburgh, PA

6:01 PM EST on February 13, 2016 (GMT -0500)
Carnegie Mellon University | | Change Station
CLOSE
Current Station
Personal Weather Station
Location: Pittsburgh, PA
Elevation: 961 ft
Nearby Weather Stations
Active Advisory: Wind Chill Advisory Active Notice: Local Storm Report

Elev 961 ft 40.44 °N, 79.94 °W | Updated 7 minutes ago

Light Snow
Light Snow
11.4 °F
Feels Like 2 °F
N
5.6
Wind Variable Wind from WNW
Gusts 17.4 mph

Today
High -- | Low -- °F
--% Chance of Precip.
Yesterday
High -- | Low -- °F
Precip. -- in
Pressure 30.45 in
Visibility 3.0 miles
Clouds Overcast 3700 ft
Windchill 2 °F
Dew Point 0.6 °F
Humidity 61%
Rainfall Not available.
Snow Depth Not available.
7:16 AM 5:52 PM
Waxing Crescent, 35% visible
METAR KAGC 132253Z 29013G20KT 3SM R28/6000VP6000FT -SN OVC037 M12/M17 A3036 RMK AO2 SLP312 VIS 2V3 SE-W P0000 T11221172
Pressure 30.45 in
Visibility 3.0 miles
Clouds Overcast 3700 ft
Windchill 2 °F
Dew Point 0.6 °F
Humidity 61%
Rainfall Not available.
Snow Depth Not available.
7:16 AM 5:52 PM
Waxing Crescent, 35% visible
METAR KAGC 132253Z 29013G20KT 3SM R28/6000VP6000FT -SN OVC037 M12/M17 A3036 RMK AO2 SLP312 VIS 2V3 SE-W P0000 T11221172

10-Day Weather Forecast

Almanac

Astronomy

Feb. 13, 2016 Rise Set
Actual Time
Civil Twilight
Nautical Twilight
Astronomical Twilight
Moon
Length of Visible Light
Length of Day
Tomorrow will be .
, % of the Moon is Illuminated

Today's Extremes

State Highs State Lows

Community

WunderPhotos

Upload Photos

1,892,692 photos uploaded!

WunderBlog® & News

Nearby

Air Quality

  Air Quality AQ Index Pollutant
Not available.

Snow Depth

Station Depth Elevation

Earthquake Activity

City Distance Mag. Time & Date
Minimum magnitude displayed is 2.5.

Coastal Water Temperatures

Place Temperature

Stations

Nearby Weather Stations

Station Location Temp. Windchill Dew Point Humidity Wind Precip. Elev Updated Type
                   

Watches & Warnings

Wind Chill Advisory
Issued: 2:50 PM EST Feb. 13, 2016 – National Weather Service

... Wind Chill Advisory remains in effect until 9 am EST Sunday...

* wind chill... as low as 14 below due to temperatures 4 below to
12 above zero... and winds west 5 to 15 mph with gusts up to 25
mph.

* Impacts... frost bite and hypothermia are possible if
precautions are not taken.